Renee Davison — WDF9429 — position and weather

sailwx.info

Track history (hours):
 
Tides and Currents Weather Stations Pressure Air Temp Water Temp Dewpoint Dewpoint Depression Visibility Wind Speed Wind Dir Waves Ship Positions

Renee Davison

Owner: Genesis Marine, LLC, Houston, TX. More information available from US FCC via Universal Licensing System and Coast Guard Vessel Documentation Center.

Last reported at 2017-Oct-16 04:27 UTC. Time now 2017-Oct-20 06:43 UTC.
Position N 29°57' W 090°23'.

Length 27 m; draft 3.1 m.

Type: Towing. MMSI: 367505070.

Date/timePositionNaut miles runAvg speedWind from/ knotsBaromVisibWave heightAir tempDewpointWater temp
2017-Oct-16 04:27N 29°57' W 090°23'0 0.0
2017-Oct-16 03:46N 29°57' W 090°23'0 0.0
2017-Oct-16 03:07N 29°57' W 090°23'0 0.0
2017-Oct-16 02:41N 29°57' W 090°23'0 0.0
2017-Oct-14 12:05N 29°57' W 090°23'0 0.2
2017-Oct-14 11:59N 29°57' W 090°23'0 0.0
2017-Oct-14 11:31N 29°57' W 090°23'0 0.0
2017-Oct-14 11:00N 29°57' W 090°23'0 0.0
2017-Oct-14 10:30N 29°57' W 090°23'0 0.0
2017-Oct-14 09:54N 29°57' W 090°23'0 0.0
2017-Oct-14 09:30N 29°57' W 090°23'0 0.0
2017-Oct-14 09:01N 29°57' W 090°23'0 0.0
2017-Oct-14 08:31N 29°57' W 090°23'0 0.0
2017-Oct-14 06:34N 29°57' W 090°23'0 0.0
2017-Oct-14 06:03N 29°57' W 090°23'0 0.0
2017-Oct-14 05:46N 29°57' W 090°23'0 0.0
2017-Oct-14 04:31N 29°57' W 090°23'0 0.0
2017-Oct-14 04:13N 29°57' W 090°23'0 0.0
2017-Oct-14 04:01N 29°57' W 090°23'0 0.0
2017-Oct-13 14:03N 29°57' W 090°23'0 0.0
2017-Oct-13 14:01N 29°57' W 090°23'0 0.0
2017-Oct-13 13:30N 29°57' W 090°23'0 0.0
2017-Oct-13 12:56N 29°57' W 090°23'0 0.0
2017-Oct-13 12:27N 29°57' W 090°23'0 0.0
2017-Oct-13 12:01N 29°57' W 090°23'20 0.7
2017-Oct-12 05:39N 29°37' W 090°21'2 5.3
2017-Oct-12 05:12N 29°35' W 090°23'1 4.8
2017-Oct-12 04:55N 29°34' W 090°23'1 3.6
2017-Oct-12 04:30N 29°33' W 090°25'1 0.7
2017-Oct-12 03:33N 29°33' W 090°26'0 0.1
2017-Oct-12 03:30N 29°33' W 090°26'0 0.9
2017-Oct-12 03:01N 29°33' W 090°26'3 5.0
2017-Oct-12 02:29N 29°34' W 090°29'2 5.2
2017-Oct-12 02:01N 29°34' W 090°32'2 5.0
2017-Oct-12 01:31N 29°34' W 090°35'2 4.3
2017-Oct-12 01:01N 29°35' W 090°37'2 4.8
2017-Oct-12 00:31N 29°36' W 090°39'2 4.3
2017-Oct-12 00:00N 29°37' W 090°42'2 3.2
2017-Oct-11 23:31N 29°35' W 090°43'2 3.6
2017-Oct-11 23:00N 29°34' W 090°44'1 1.2
2017-Oct-11 22:31N 29°34' W 090°44'0 0.6
2017-Oct-11 22:01N 29°34' W 090°45'2 4.9
2017-Oct-11 21:31N 29°32' W 090°47'3 5.7
2017-Oct-11 21:01N 29°32' W 090°50'3 5.3
2017-Oct-11 20:30N 29°33' W 090°53'3 5.5
2017-Oct-11 20:00N 29°34' W 090°56'3 5.1
2017-Oct-11 19:30N 29°36' W 090°58'75 3.8
2017-Oct-10 23:45N 29°52' W 092°22'1 4.1
2017-Oct-10 23:29N 29°53' W 092°23'3 4.3
2017-Oct-10 22:42N 29°54' W 092°27'32 4.2
2017-Oct-10 15:06N 29°56' W 093°04'0 4.1
2017-Oct-10 15:00N 29°56' W 093°04'4 4.2
2017-Oct-10 14:00N 29°56' W 093°09'2 4.0
2017-Oct-10 13:31N 29°58' W 093°11'2 4.1
2017-Oct-10 13:01N 29°59' W 093°12'2 4.1
2017-Oct-10 12:31N 30°01' W 093°14'2 3.9
2017-Oct-10 12:01N 30°02' W 093°15'2 3.7
2017-Oct-10 11:31N 30°04' W 093°16'2 3.9
2017-Oct-10 11:01N 30°05' W 093°18'1 2.3
2017-Oct-10 10:31N 30°06' W 093°19'0 0.3
2017-Oct-10 10:00N 30°06' W 093°18'0 0.0
2017-Oct-10 09:30N 30°06' W 093°18'0 0.1
2017-Oct-10 09:01N 30°06' W 093°18'0 0.1
2017-Oct-10 08:31N 30°06' W 093°18'0 0.0
2017-Oct-10 08:00N 30°06' W 093°18'0 0.0
2017-Oct-10 07:31N 30°06' W 093°18'0 0.0
2017-Oct-10 07:01N 30°06' W 093°18'0 0.0
2017-Oct-10 06:31N 30°06' W 093°18'0 0.0
2017-Oct-10 06:01N 30°06' W 093°18'0 0.1
2017-Oct-10 05:30N 30°06' W 093°18'0 0.1
2017-Oct-10 05:01N 30°06' W 093°18'0 0.1
2017-Oct-10 04:31N 30°06' W 093°18'0 0.0
2017-Oct-10 04:01N 30°06' W 093°18'0 0.1
2017-Oct-10 03:31N 30°06' W 093°18'0 0.0
2017-Oct-10 03:00N 30°06' W 093°18'0 0.0
2017-Oct-10 02:31N 30°06' W 093°18'0 0.0
2017-Oct-10 02:00N 30°06' W 093°18'0 0.1
2017-Oct-10 01:31N 30°06' W 093°18'0 0.2
2017-Oct-10 01:00N 30°06' W 093°18'0 0.0
2017-Oct-10 00:31N 30°06' W 093°18'0 0.0
2017-Oct-10 00:01N 30°06' W 093°18'0 0.0
2017-Oct-09 23:31N 30°06' W 093°18'0 0.1
2017-Oct-09 23:01N 30°06' W 093°18'0 0.2
2017-Oct-09 22:31N 30°06' W 093°18'0 0.0
2017-Oct-09 22:01N 30°06' W 093°18'1 1.7
2017-Oct-09 21:31N 30°06' W 093°19'2 4.6
2017-Oct-09 21:01N 30°08' W 093°20'3 5.2
2017-Oct-09 20:30N 30°11' W 093°19'2 4.1
2017-Oct-09 20:01N 30°12' W 093°17'1 1.1
2017-Oct-09 19:31N 30°12' W 093°17'2 3.1
2017-Oct-09 19:01N 30°13' W 093°16'1 1.2
2017-Oct-09 18:31N 30°14' W 093°15'0 0.1
2017-Oct-09 18:01N 30°14' W 093°15'0 0.0
2017-Oct-09 17:31N 30°14' W 093°15'0 0.0
2017-Oct-09 17:00N 30°14' W 093°15'0 0.0
2017-Oct-09 16:31N 30°14' W 093°15'0 0.0
2017-Oct-09 16:00N 30°14' W 093°15'0 0.0
2017-Oct-09 15:30N 30°14' W 093°15'0 0.0
2017-Oct-09 15:01N 30°14' W 093°15'0 0.0
2017-Oct-09 14:31N 30°14' W 093°15'0 0.0
2017-Oct-09 14:00N 30°14' W 093°15'0 0.0
2017-Oct-09 13:30N 30°14' W 093°15'0 0.0
2017-Oct-09 13:01N 30°14' W 093°15'0 0.0
2017-Oct-09 12:31N 30°14' W 093°15'0 0.0
2017-Oct-09 12:01N 30°14' W 093°15'0 0.0
2017-Oct-09 11:31N 30°14' W 093°15'0 0.0
2017-Oct-09 11:01N 30°14' W 093°15'0 0.0
2017-Oct-09 10:30N 30°14' W 093°15'0 0.0
2017-Oct-09 10:01N 30°14' W 093°15'0 0.0
2017-Oct-09 09:30N 30°14' W 093°15'0 0.0
2017-Oct-09 09:01N 30°14' W 093°15'0 0.0
2017-Oct-09 08:31N 30°14' W 093°15'0 0.0
2017-Oct-09 08:01N 30°14' W 093°15'0 0.0
2017-Oct-09 07:31N 30°14' W 093°15'0 0.0
2017-Oct-09 07:01N 30°14' W 093°15'0 0.0
2017-Oct-09 06:31N 30°14' W 093°15'0 0.0
2017-Oct-09 06:01N 30°14' W 093°15'0 0.0
2017-Oct-09 05:31N 30°14' W 093°15'0 0.0
2017-Oct-09 05:01N 30°14' W 093°15'0 0.0
2017-Oct-09 04:30N 30°14' W 093°15'0 0.0
2017-Oct-09 04:00N 30°14' W 093°15'0 0.0
2017-Oct-09 03:31N 30°14' W 093°15'0 0.0
2017-Oct-09 03:00N 30°14' W 093°15'0 0.0
2017-Oct-09 02:30N 30°14' W 093°15'0 0.0
2017-Oct-09 02:00N 30°14' W 093°15'0 0.0
2017-Oct-09 01:30N 30°14' W 093°15'0 0.0
2017-Oct-09 01:01N 30°14' W 093°15'0 0.0
2017-Oct-09 00:30N 30°14' W 093°15'0 0.0
2017-Oct-09 00:01N 30°14' W 093°15'0 0.0
2017-Oct-08 23:31N 30°14' W 093°15'0 0.0
2017-Oct-08 23:00N 30°14' W 093°15'0 0.0
2017-Oct-08 22:30N 30°14' W 093°15'0 0.0
2017-Oct-08 22:01N 30°14' W 093°15'0 0.0
2017-Oct-08 21:31N 30°14' W 093°15'0 0.0
2017-Oct-08 21:00N 30°14' W 093°15'0 0.0
2017-Oct-08 20:31N 30°14' W 093°15'0 0.0
2017-Oct-08 20:01N 30°14' W 093°15'0 0.0
2017-Oct-08 19:31N 30°14' W 093°15'0 0.0
2017-Oct-08 19:00N 30°14' W 093°15'0 0.0
2017-Oct-08 18:30N 30°14' W 093°15'0 0.0
2017-Oct-08 18:01N 30°14' W 093°15'0 0.0
2017-Oct-08 17:31N 30°14' W 093°15'0 0.0
2017-Oct-08 17:01N 30°14' W 093°15'0 0.0
2017-Oct-08 16:30N 30°14' W 093°15'0 0.0
2017-Oct-08 16:01N 30°14' W 093°15'0 0.0
2017-Oct-08 15:30N 30°14' W 093°15'0 0.0
2017-Oct-08 15:00N 30°14' W 093°15'0 0.0
2017-Oct-08 14:31N 30°14' W 093°15'0 0.0
2017-Oct-08 14:00N 30°14' W 093°15'0 0.0
2017-Oct-08 13:31N 30°14' W 093°15'0 0.0
2017-Oct-08 13:01N 30°14' W 093°15'0 0.0
2017-Oct-08 12:31N 30°14' W 093°15'0 0.0
2017-Oct-08 12:01N 30°14' W 093°15'0 0.0
2017-Oct-08 11:31N 30°14' W 093°15'0 0.0
2017-Oct-08 11:01N 30°14' W 093°15'0 0.0
2017-Oct-08 10:31N 30°14' W 093°15'0 0.0
2017-Oct-08 10:01N 30°14' W 093°15'0 0.0
2017-Oct-08 09:31N 30°14' W 093°15'0 0.0
2017-Oct-08 09:01N 30°14' W 093°15'0 0.0
2017-Oct-08 08:31N 30°14' W 093°15'0 0.0
2017-Oct-08 08:01N 30°14' W 093°15'0 0.0
2017-Oct-08 07:31N 30°14' W 093°15'1 1.7
2017-Oct-08 07:01N 30°13' W 093°16'0 0.0
2017-Oct-08 06:31N 30°13' W 093°16'0 0.0
2017-Oct-08 06:01N 30°13' W 093°16'0 0.0
2017-Oct-08 05:30N 30°13' W 093°16'0 0.0
2017-Oct-08 05:01N 30°13' W 093°16'0 0.0
2017-Oct-08 04:31N 30°13' W 093°16'0 0.0
2017-Oct-08 04:01N 30°13' W 093°16'0 0.0
2017-Oct-08 03:30N 30°13' W 093°16'0 0.0
2017-Oct-08 03:01N 30°13' W 093°16'0 0.0
2017-Oct-08 02:31N 30°13' W 093°16'0 0.0
2017-Oct-08 02:01N 30°13' W 093°16'0 0.0
2017-Oct-08 01:31N 30°13' W 093°16'0 0.0
2017-Oct-08 01:00N 30°13' W 093°16'0 0.0
2017-Oct-08 00:31N 30°13' W 093°16'0 0.0
2017-Oct-08 00:01N 30°13' W 093°16'0 0.0
2017-Oct-07 23:30N 30°13' W 093°16'0 0.0
2017-Oct-07 23:00N 30°13' W 093°16'0 0.0
2017-Oct-07 22:31N 30°13' W 093°16'0 0.0
2017-Oct-07 22:00N 30°13' W 093°16'0 0.0
2017-Oct-07 21:31N 30°13' W 093°16'0 0.0
2017-Oct-07 21:01N 30°13' W 093°16'0 0.0
2017-Oct-07 20:31N 30°13' W 093°16'0 0.0
2017-Oct-07 20:01N 30°13' W 093°16'0 0.6
2017-Oct-07 19:31N 30°13' W 093°16'2 3.4
2017-Oct-07 19:01N 30°12' W 093°17'3 5.1
2017-Oct-07 18:31N 30°10' W 093°19'2 4.8
2017-Oct-07 18:01N 30°07' W 093°20'2 3.3
2017-Oct-07 17:31N 30°06' W 093°19'1 2.7
2017-Oct-07 17:01N 30°06' W 093°17'0 0.0
2017-Oct-07 16:31N 30°06' W 093°17'0 0.0
2017-Oct-07 16:01N 30°06' W 093°17'0 0.0
2017-Oct-07 15:30N 30°06' W 093°17'0 0.0
2017-Oct-07 15:01N 30°06' W 093°17'0 0.0
2017-Oct-07 14:30N 30°06' W 093°17'0 0.0
2017-Oct-07 14:01N 30°06' W 093°17'0 0.0
2017-Oct-07 13:31N 30°06' W 093°17'0 0.0
2017-Oct-07 13:01N 30°06' W 093°17'0 0.0
2017-Oct-07 12:31N 30°06' W 093°17'0 0.0
2017-Oct-07 12:01N 30°06' W 093°17'0 0.0
2017-Oct-07 11:30N 30°06' W 093°17'0 0.0
2017-Oct-07 11:01N 30°06' W 093°17'0 0.0
2017-Oct-07 10:31N 30°06' W 093°17'0 0.0
2017-Oct-07 10:01N 30°06' W 093°17'0 0.0
2017-Oct-07 09:31N 30°06' W 093°17'0 0.0
2017-Oct-07 09:01N 30°06' W 093°17'0 0.0
2017-Oct-07 08:31N 30°06' W 093°17'0 0.0
2017-Oct-07 08:01N 30°06' W 093°17'0 0.0
2017-Oct-07 07:31N 30°06' W 093°17'0 0.0
2017-Oct-07 07:01N 30°06' W 093°17'0 0.0
2017-Oct-07 06:30N 30°06' W 093°17'0 0.0
2017-Oct-07 06:00N 30°06' W 093°17'0 0.0
2017-Oct-07 05:31N 30°06' W 093°17'0 0.0
2017-Oct-07 05:01N 30°06' W 093°17'0 0.0
2017-Oct-07 04:31N 30°06' W 093°17'0 0.0
2017-Oct-07 04:01N 30°06' W 093°17'0 0.0
2017-Oct-07 03:31N 30°06' W 093°17'0 0.1
2017-Oct-07 03:01N 30°06' W 093°17'0 0.0
2017-Oct-07 02:31N 30°06' W 093°17'0 0.0
2017-Oct-07 02:00N 30°06' W 093°17'0 0.0
2017-Oct-07 01:31N 30°06' W 093°17'0 0.0
2017-Oct-07 01:01N 30°06' W 093°17'0 0.0
2017-Oct-07 00:30N 30°06' W 093°17'0 0.0
2017-Oct-07 00:00N 30°06' W 093°17'0 0.0
2017-Oct-06 23:31N 30°06' W 093°17'0 0.0
2017-Oct-06 23:00N 30°06' W 093°17'0 0.0
2017-Oct-06 22:30N 30°06' W 093°17'0 0.0
2017-Oct-06 22:01N 30°06' W 093°17'0 0.0
2017-Oct-06 21:31N 30°06' W 093°17'0 0.0
2017-Oct-06 21:00N 30°06' W 093°17'0 0.0
2017-Oct-06 20:30N 30°06' W 093°17'0 0.0
2017-Oct-06 20:01N 30°06' W 093°17'0 0.0
2017-Oct-06 19:31N 30°06' W 093°17'0 0.0
2017-Oct-06 19:00N 30°06' W 093°17'0 0.0
2017-Oct-06 18:30N 30°06' W 093°17'0 0.0
2017-Oct-06 17:59N 30°06' W 093°17'0 0.0
2017-Oct-06 17:29N 30°06' W 093°17'0 0.0
2017-Oct-06 17:00N 30°06' W 093°17'0 0.0
2017-Oct-06 16:30N 30°06' W 093°17'0 0.0
2017-Oct-06 15:59N 30°06' W 093°17'0 0.0
2017-Oct-06 15:29N 30°06' W 093°17'0 0.0
2017-Oct-06 15:00N 30°06' W 093°17'0 0.0
2017-Oct-06 14:29N 30°06' W 093°17'2 3.6
2017-Oct-06 13:59N 30°06' W 093°19'2 4.6
2017-Oct-06 13:28N 30°08' W 093°20'2 5.0
2017-Oct-06 13:00N 30°10' W 093°19'3 5.3
2017-Oct-06 12:30N 30°12' W 093°17'2 4.4
2017-Oct-06 12:00N 30°14' W 093°15'0 0.1
2017-Oct-06 11:30N 30°14' W 093°15'0 0.0
2017-Oct-06 10:54N 30°14' W 093°15'0 0.0
2017-Oct-06 10:30N 30°14' W 093°15'0 0.0
2017-Oct-06 10:00N 30°14' W 093°15'0 0.0
2017-Oct-06 09:30N 30°14' W 093°15'0 0.0
2017-Oct-06 09:00N 30°14' W 093°15'0 0.0
2017-Oct-06 08:23N 30°14' W 093°15'0 0.0
2017-Oct-06 08:00N 30°14' W 093°15'0 0.0
2017-Oct-06 07:30N 30°14' W 093°15'0 0.0
2017-Oct-06 07:00N 30°14' W 093°15'0 0.0
2017-Oct-06 06:30N 30°14' W 093°15'0 0.0
2017-Oct-06 05:59N 30°14' W 093°15'0 0.0
2017-Oct-06 05:29N 30°14' W 093°15'0 0.0
2017-Oct-06 05:00N 30°14' W 093°15'0 0.0
2017-Oct-06 04:28N 30°14' W 093°15'  
Track history (hours):
 
Tides and Currents Weather Stations Pressure Air Temp Water Temp Dewpoint Dewpoint Depression Visibility Wind Speed Wind Dir Waves Ship Positions

Renee Davison

Owner: Genesis Marine, LLC, Houston, TX. More information available from US FCC via Universal Licensing System and Coast Guard Vessel Documentation Center.

Last reported at 2017-Oct-16 04:27 UTC. Time now 2017-Oct-20 06:43 UTC.
Position N 29°57' W 090°23'.

Length 27 m; draft 3.1 m.

Type: Towing. MMSI: 367505070.

Date/timePositionNaut miles runAvg speedWind from/ knotsBaromVisibWave heightAir tempDewpointWater temp
2017-Oct-16 04:27N 29°57' W 090°23'0 0.0
2017-Oct-16 03:46N 29°57' W 090°23'0 0.0
2017-Oct-16 03:07N 29°57' W 090°23'0 0.0
2017-Oct-16 02:41N 29°57' W 090°23'0 0.0
2017-Oct-14 12:05N 29°57' W 090°23'0 0.2
2017-Oct-14 11:59N 29°57' W 090°23'0 0.0
2017-Oct-14 11:31N 29°57' W 090°23'0 0.0
2017-Oct-14 11:00N 29°57' W 090°23'0 0.0
2017-Oct-14 10:30N 29°57' W 090°23'0 0.0
2017-Oct-14 09:54N 29°57' W 090°23'0 0.0
2017-Oct-14 09:30N 29°57' W 090°23'0 0.0
2017-Oct-14 09:01N 29°57' W 090°23'0 0.0
2017-Oct-14 08:31N 29°57' W 090°23'0 0.0
2017-Oct-14 06:34N 29°57' W 090°23'0 0.0
2017-Oct-14 06:03N 29°57' W 090°23'0 0.0
2017-Oct-14 05:46N 29°57' W 090°23'0 0.0
2017-Oct-14 04:31N 29°57' W 090°23'0 0.0
2017-Oct-14 04:13N 29°57' W 090°23'0 0.0
2017-Oct-14 04:01N 29°57' W 090°23'0 0.0
2017-Oct-13 14:03N 29°57' W 090°23'0 0.0
2017-Oct-13 14:01N 29°57' W 090°23'0 0.0
2017-Oct-13 13:30N 29°57' W 090°23'0 0.0
2017-Oct-13 12:56N 29°57' W 090°23'0 0.0
2017-Oct-13 12:27N 29°57' W 090°23'0 0.0
2017-Oct-13 12:01N 29°57' W 090°23'20 0.7
2017-Oct-12 05:39N 29°37' W 090°21'2 5.3
2017-Oct-12 05:12N 29°35' W 090°23'1 4.8
2017-Oct-12 04:55N 29°34' W 090°23'1 3.6
2017-Oct-12 04:30N 29°33' W 090°25'1 0.7
2017-Oct-12 03:33N 29°33' W 090°26'0 0.1
2017-Oct-12 03:30N 29°33' W 090°26'0 0.9
2017-Oct-12 03:01N 29°33' W 090°26'3 5.0
2017-Oct-12 02:29N 29°34' W 090°29'2 5.2
2017-Oct-12 02:01N 29°34' W 090°32'2 5.0
2017-Oct-12 01:31N 29°34' W 090°35'2 4.3
2017-Oct-12 01:01N 29°35' W 090°37'2 4.8
2017-Oct-12 00:31N 29°36' W 090°39'2 4.3
2017-Oct-12 00:00N 29°37' W 090°42'2 3.2
2017-Oct-11 23:31N 29°35' W 090°43'2 3.6
2017-Oct-11 23:00N 29°34' W 090°44'1 1.2
2017-Oct-11 22:31N 29°34' W 090°44'0 0.6
2017-Oct-11 22:01N 29°34' W 090°45'2 4.9
2017-Oct-11 21:31N 29°32' W 090°47'3 5.7
2017-Oct-11 21:01N 29°32' W 090°50'3 5.3
2017-Oct-11 20:30N 29°33' W 090°53'3 5.5
2017-Oct-11 20:00N 29°34' W 090°56'3 5.1
2017-Oct-11 19:30N 29°36' W 090°58'75 3.8
2017-Oct-10 23:45N 29°52' W 092°22'1 4.1
2017-Oct-10 23:29N 29°53' W 092°23'3 4.3
2017-Oct-10 22:42N 29°54' W 092°27'32 4.2
2017-Oct-10 15:06N 29°56' W 093°04'0 4.1
2017-Oct-10 15:00N 29°56' W 093°04'4 4.2
2017-Oct-10 14:00N 29°56' W 093°09'2 4.0
2017-Oct-10 13:31N 29°58' W 093°11'2 4.1
2017-Oct-10 13:01N 29°59' W 093°12'2 4.1
2017-Oct-10 12:31N 30°01' W 093°14'2 3.9
2017-Oct-10 12:01N 30°02' W 093°15'2 3.7
2017-Oct-10 11:31N 30°04' W 093°16'2 3.9
2017-Oct-10 11:01N 30°05' W 093°18'1 2.3
2017-Oct-10 10:31N 30°06' W 093°19'0 0.3
2017-Oct-10 10:00N 30°06' W 093°18'0 0.0
2017-Oct-10 09:30N 30°06' W 093°18'0 0.1
2017-Oct-10 09:01N 30°06' W 093°18'0 0.1
2017-Oct-10 08:31N 30°06' W 093°18'0 0.0
2017-Oct-10 08:00N 30°06' W 093°18'0 0.0
2017-Oct-10 07:31N 30°06' W 093°18'0 0.0
2017-Oct-10 07:01N 30°06' W 093°18'0 0.0
2017-Oct-10 06:31N 30°06' W 093°18'0 0.0
2017-Oct-10 06:01N 30°06' W 093°18'0 0.1
2017-Oct-10 05:30N 30°06' W 093°18'0 0.1
2017-Oct-10 05:01N 30°06' W 093°18'0 0.1
2017-Oct-10 04:31N 30°06' W 093°18'0 0.0
2017-Oct-10 04:01N 30°06' W 093°18'0 0.1
2017-Oct-10 03:31N 30°06' W 093°18'0 0.0
2017-Oct-10 03:00N 30°06' W 093°18'0 0.0
2017-Oct-10 02:31N 30°06' W 093°18'0 0.0
2017-Oct-10 02:00N 30°06' W 093°18'0 0.1
2017-Oct-10 01:31N 30°06' W 093°18'0 0.2
2017-Oct-10 01:00N 30°06' W 093°18'0 0.0
2017-Oct-10 00:31N 30°06' W 093°18'0 0.0
2017-Oct-10 00:01N 30°06' W 093°18'0 0.0
2017-Oct-09 23:31N 30°06' W 093°18'0 0.1
2017-Oct-09 23:01N 30°06' W 093°18'0 0.2
2017-Oct-09 22:31N 30°06' W 093°18'0 0.0
2017-Oct-09 22:01N 30°06' W 093°18'1 1.7
2017-Oct-09 21:31N 30°06' W 093°19'2 4.6
2017-Oct-09 21:01N 30°08' W 093°20'3 5.2
2017-Oct-09 20:30N 30°11' W 093°19'2 4.1
2017-Oct-09 20:01N 30°12' W 093°17'1 1.1
2017-Oct-09 19:31N 30°12' W 093°17'2 3.1
2017-Oct-09 19:01N 30°13' W 093°16'1 1.2
2017-Oct-09 18:31N 30°14' W 093°15'0 0.1
2017-Oct-09 18:01N 30°14' W 093°15'0 0.0
2017-Oct-09 17:31N 30°14' W 093°15'0 0.0
2017-Oct-09 17:00N 30°14' W 093°15'0 0.0
2017-Oct-09 16:31N 30°14' W 093°15'0 0.0
2017-Oct-09 16:00N 30°14' W 093°15'0 0.0
2017-Oct-09 15:30N 30°14' W 093°15'0 0.0
2017-Oct-09 15:01N 30°14' W 093°15'0 0.0
2017-Oct-09 14:31N 30°14' W 093°15'0 0.0
2017-Oct-09 14:00N 30°14' W 093°15'0 0.0
2017-Oct-09 13:30N 30°14' W 093°15'0 0.0
2017-Oct-09 13:01N 30°14' W 093°15'0 0.0
2017-Oct-09 12:31N 30°14' W 093°15'0 0.0
2017-Oct-09 12:01N 30°14' W 093°15'0 0.0
2017-Oct-09 11:31N 30°14' W 093°15'0 0.0
2017-Oct-09 11:01N 30°14' W 093°15'0 0.0
2017-Oct-09 10:30N 30°14' W 093°15'0 0.0
2017-Oct-09 10:01N 30°14' W 093°15'0 0.0
2017-Oct-09 09:30N 30°14' W 093°15'0 0.0
2017-Oct-09 09:01N 30°14' W 093°15'0 0.0
2017-Oct-09 08:31N 30°14' W 093°15'0 0.0
2017-Oct-09 08:01N 30°14' W 093°15'0 0.0
2017-Oct-09 07:31N 30°14' W 093°15'0 0.0
2017-Oct-09 07:01N 30°14' W 093°15'0 0.0
2017-Oct-09 06:31N 30°14' W 093°15'0 0.0
2017-Oct-09 06:01N 30°14' W 093°15'0 0.0
2017-Oct-09 05:31N 30°14' W 093°15'0 0.0
2017-Oct-09 05:01N 30°14' W 093°15'0 0.0
2017-Oct-09 04:30N 30°14' W 093°15'0 0.0
2017-Oct-09 04:00N 30°14' W 093°15'0 0.0
2017-Oct-09 03:31N 30°14' W 093°15'0 0.0
2017-Oct-09 03:00N 30°14' W 093°15'0 0.0
2017-Oct-09 02:30N 30°14' W 093°15'0 0.0
2017-Oct-09 02:00N 30°14' W 093°15'0 0.0
2017-Oct-09 01:30N 30°14' W 093°15'0 0.0
2017-Oct-09 01:01N 30°14' W 093°15'0 0.0
2017-Oct-09 00:30N 30°14' W 093°15'0 0.0
2017-Oct-09 00:01N 30°14' W 093°15'0 0.0
2017-Oct-08 23:31N 30°14' W 093°15'0 0.0
2017-Oct-08 23:00N 30°14' W 093°15'0 0.0
2017-Oct-08 22:30N 30°14' W 093°15'0 0.0
2017-Oct-08 22:01N 30°14' W 093°15'0 0.0
2017-Oct-08 21:31N 30°14' W 093°15'0 0.0
2017-Oct-08 21:00N 30°14' W 093°15'0 0.0
2017-Oct-08 20:31N 30°14' W 093°15'0 0.0
2017-Oct-08 20:01N 30°14' W 093°15'0 0.0
2017-Oct-08 19:31N 30°14' W 093°15'0 0.0
2017-Oct-08 19:00N 30°14' W 093°15'0 0.0
2017-Oct-08 18:30N 30°14' W 093°15'0 0.0
2017-Oct-08 18:01N 30°14' W 093°15'0 0.0
2017-Oct-08 17:31N 30°14' W 093°15'0 0.0
2017-Oct-08 17:01N 30°14' W 093°15'0 0.0
2017-Oct-08 16:30N 30°14' W 093°15'0 0.0
2017-Oct-08 16:01N 30°14' W 093°15'0 0.0
2017-Oct-08 15:30N 30°14' W 093°15'0 0.0
2017-Oct-08 15:00N 30°14' W 093°15'0 0.0
2017-Oct-08 14:31N 30°14' W 093°15'0 0.0
2017-Oct-08 14:00N 30°14' W 093°15'0 0.0
2017-Oct-08 13:31N 30°14' W 093°15'0 0.0
2017-Oct-08 13:01N 30°14' W 093°15'0 0.0
2017-Oct-08 12:31N 30°14' W 093°15'0 0.0
2017-Oct-08 12:01N 30°14' W 093°15'0 0.0
2017-Oct-08 11:31N 30°14' W 093°15'0 0.0
2017-Oct-08 11:01N 30°14' W 093°15'0 0.0
2017-Oct-08 10:31N 30°14' W 093°15'0 0.0
2017-Oct-08 10:01N 30°14' W 093°15'0 0.0
2017-Oct-08 09:31N 30°14' W 093°15'0 0.0
2017-Oct-08 09:01N 30°14' W 093°15'0 0.0
2017-Oct-08 08:31N 30°14' W 093°15'0 0.0
2017-Oct-08 08:01N 30°14' W 093°15'0 0.0
2017-Oct-08 07:31N 30°14' W 093°15'1 1.7
2017-Oct-08 07:01N 30°13' W 093°16'0 0.0
2017-Oct-08 06:31N 30°13' W 093°16'0 0.0
2017-Oct-08 06:01N 30°13' W 093°16'0 0.0
2017-Oct-08 05:30N 30°13' W 093°16'0 0.0
2017-Oct-08 05:01N 30°13' W 093°16'0 0.0
2017-Oct-08 04:31N 30°13' W 093°16'0 0.0
2017-Oct-08 04:01N 30°13' W 093°16'0 0.0
2017-Oct-08 03:30N 30°13' W 093°16'0 0.0
2017-Oct-08 03:01N 30°13' W 093°16'0 0.0
2017-Oct-08 02:31N 30°13' W 093°16'0 0.0
2017-Oct-08 02:01N 30°13' W 093°16'0 0.0
2017-Oct-08 01:31N 30°13' W 093°16'0 0.0
2017-Oct-08 01:00N 30°13' W 093°16'0 0.0
2017-Oct-08 00:31N 30°13' W 093°16'0 0.0
2017-Oct-08 00:01N 30°13' W 093°16'0 0.0
2017-Oct-07 23:30N 30°13' W 093°16'0 0.0
2017-Oct-07 23:00N 30°13' W 093°16'0 0.0
2017-Oct-07 22:31N 30°13' W 093°16'0 0.0
2017-Oct-07 22:00N 30°13' W 093°16'0 0.0
2017-Oct-07 21:31N 30°13' W 093°16'0 0.0
2017-Oct-07 21:01N 30°13' W 093°16'0 0.0
2017-Oct-07 20:31N 30°13' W 093°16'0 0.0
2017-Oct-07 20:01N 30°13' W 093°16'0 0.6
2017-Oct-07 19:31N 30°13' W 093°16'2 3.4
2017-Oct-07 19:01N 30°12' W 093°17'3 5.1
2017-Oct-07 18:31N 30°10' W 093°19'2 4.8
2017-Oct-07 18:01N 30°07' W 093°20'2 3.3
2017-Oct-07 17:31N 30°06' W 093°19'1 2.7
2017-Oct-07 17:01N 30°06' W 093°17'0 0.0
2017-Oct-07 16:31N 30°06' W 093°17'0 0.0
2017-Oct-07 16:01N 30°06' W 093°17'0 0.0
2017-Oct-07 15:30N 30°06' W 093°17'0 0.0
2017-Oct-07 15:01N 30°06' W 093°17'0 0.0
2017-Oct-07 14:30N 30°06' W 093°17'0 0.0
2017-Oct-07 14:01N 30°06' W 093°17'0 0.0
2017-Oct-07 13:31N 30°06' W 093°17'0 0.0
2017-Oct-07 13:01N 30°06' W 093°17'0 0.0
2017-Oct-07 12:31N 30°06' W 093°17'0 0.0
2017-Oct-07 12:01N 30°06' W 093°17'0 0.0
2017-Oct-07 11:30N 30°06' W 093°17'0 0.0
2017-Oct-07 11:01N 30°06' W 093°17'0 0.0
2017-Oct-07 10:31N 30°06' W 093°17'0 0.0
2017-Oct-07 10:01N 30°06' W 093°17'0 0.0
2017-Oct-07 09:31N 30°06' W 093°17'0 0.0
2017-Oct-07 09:01N 30°06' W 093°17'0 0.0
2017-Oct-07 08:31N 30°06' W 093°17'0 0.0
2017-Oct-07 08:01N 30°06' W 093°17'0 0.0
2017-Oct-07 07:31N 30°06' W 093°17'0 0.0
2017-Oct-07 07:01N 30°06' W 093°17'0 0.0
2017-Oct-07 06:30N 30°06' W 093°17'0 0.0
2017-Oct-07 06:00N 30°06' W 093°17'0 0.0
2017-Oct-07 05:31N 30°06' W 093°17'0 0.0
2017-Oct-07 05:01N 30°06' W 093°17'0 0.0
2017-Oct-07 04:31N 30°06' W 093°17'0 0.0
2017-Oct-07 04:01N 30°06' W 093°17'0 0.0
2017-Oct-07 03:31N 30°06' W 093°17'0 0.1
2017-Oct-07 03:01N 30°06' W 093°17'0 0.0
2017-Oct-07 02:31N 30°06' W 093°17'0 0.0
2017-Oct-07 02:00N 30°06' W 093°17'0 0.0
2017-Oct-07 01:31N 30°06' W 093°17'0 0.0
2017-Oct-07 01:01N 30°06' W 093°17'0 0.0
2017-Oct-07 00:30N 30°06' W 093°17'0 0.0
2017-Oct-07 00:00N 30°06' W 093°17'0 0.0
2017-Oct-06 23:31N 30°06' W 093°17'0 0.0
2017-Oct-06 23:00N 30°06' W 093°17'0 0.0
2017-Oct-06 22:30N 30°06' W 093°17'0 0.0
2017-Oct-06 22:01N 30°06' W 093°17'0 0.0
2017-Oct-06 21:31N 30°06' W 093°17'0 0.0
2017-Oct-06 21:00N 30°06' W 093°17'0 0.0
2017-Oct-06 20:30N 30°06' W 093°17'0 0.0
2017-Oct-06 20:01N 30°06' W 093°17'0 0.0
2017-Oct-06 19:31N 30°06' W 093°17'0 0.0
2017-Oct-06 19:00N 30°06' W 093°17'0 0.0
2017-Oct-06 18:30N 30°06' W 093°17'0 0.0
2017-Oct-06 17:59N 30°06' W 093°17'0 0.0
2017-Oct-06 17:29N 30°06' W 093°17'0 0.0
2017-Oct-06 17:00N 30°06' W 093°17'0 0.0
2017-Oct-06 16:30N 30°06' W 093°17'0 0.0
2017-Oct-06 15:59N 30°06' W 093°17'0 0.0
2017-Oct-06 15:29N 30°06' W 093°17'0 0.0
2017-Oct-06 15:00N 30°06' W 093°17'0 0.0
2017-Oct-06 14:29N 30°06' W 093°17'2 3.6
2017-Oct-06 13:59N 30°06' W 093°19'2 4.6
2017-Oct-06 13:28N 30°08' W 093°20'2 5.0
2017-Oct-06 13:00N 30°10' W 093°19'3 5.3
2017-Oct-06 12:30N 30°12' W 093°17'2 4.4
2017-Oct-06 12:00N 30°14' W 093°15'0 0.1
2017-Oct-06 11:30N 30°14' W 093°15'0 0.0
2017-Oct-06 10:54N 30°14' W 093°15'0 0.0
2017-Oct-06 10:30N 30°14' W 093°15'0 0.0
2017-Oct-06 10:00N 30°14' W 093°15'0 0.0
2017-Oct-06 09:30N 30°14' W 093°15'0 0.0
2017-Oct-06 09:00N 30°14' W 093°15'0 0.0
2017-Oct-06 08:23N 30°14' W 093°15'0 0.0
2017-Oct-06 08:00N 30°14' W 093°15'0 0.0
2017-Oct-06 07:30N 30°14' W 093°15'0 0.0
2017-Oct-06 07:00N 30°14' W 093°15'0 0.0
2017-Oct-06 06:30N 30°14' W 093°15'0 0.0
2017-Oct-06 05:59N 30°14' W 093°15'0 0.0
2017-Oct-06 05:29N 30°14' W 093°15'0 0.0
2017-Oct-06 05:00N 30°14' W 093°15'0 0.0
2017-Oct-06 04:28N 30°14' W 093°15'  

Dump ship's entire track history